Juquitiba, Brazil
Current Conditions -  °F | °C
As of 2:00 PM on Friday 19 Dec 2014 (Local Time) from SBSP Reporting Station
Heavy Rain Heavy Rain  
Wind Chill: 77°   Ceiling: 3300
Heat Index: 79°   Visibility: 1.2mi
Dew Point: 66°   Wind: 8mph
Humidity: 69%   Direction: 190°S
Pressure: NA   Gusts: NA
Location:  23.95°S, 47.05°W
Report Text: SBSP 191600Z 19007KT 2000 +RA HZ FEW027 BKN033 BKN040 25/19 Q1013
Loading
Personal Weather Stations






























Interactive Weather Map New forecast layout! Learn more

10-Day Weather Forecast

Advertisements
Track Severe Weather on mobile